West Endicott, New York
Current Conditions -  °F | °C
As of 11:35 AM on Monday 26 Jan 2015 (Local Time) from KBGM Reporting Station
Light Snow Light Snow  
Wind Chill: -1°   Ceiling: 1900
Heat Index: 11°   Visibility: 0.75mi
Dew Point:   Wind: 8mph
Humidity: 88%   Direction: 70°ENE
Pressure: 29.84"   Gusts: NA
Location:  42.1332°N, 76.0798°W
Report Text: KBGM 261635Z 07007KT 3/4SM -SN BR BKN019 OVC033 M12/M13 A2984 RMK AO2 TWR VIS 1 P0002 T11171133 RVRNO
Loading
Personal Weather Stations






























Interactive Weather Map New forecast layout! Learn more

10-Day Weather Forecast

Advertisements
Track Severe Weather on mobile